Time;durP1;ratioP1;P1;durP2;ratioP2;P2;SDS_P1;SDS_P2;PMS_P1;PMS_P2;Temp;Humidity;BMP_temperature;BMP_pressure;BME280_temperature;BME280_humidity;BME280_pressure;Samples;Min_cycle;Max_cycle;Signal;HPM_P1;HPM_P2
2022/10/30 00:01:56;;;;;;;24.25;6.32;;;;;;;;;;6237248;22;20169;-92
2022/10/30 00:05:01;;;;;;;16.33;6.47;;;;;;;;;;6236681;22;20662;-90
2022/10/30 00:08:07;;;;;;;18.67;6.35;;;;;;;;;;6236519;22;20215;-91
2022/10/30 00:11:13;;;;;;;12.93;5.07;;;;;;;;;;6237238;22;20172;-91
2022/10/30 00:14:18;;;;;;;22.35;5.70;;;;;;;;;;6234892;22;20173;-91
2022/10/30 00:17:23;;;;;;;15.27;5.75;;;;;;;;;;6163542;22;20231;-92
2022/10/30 00:20:28;;;;;;;13.75;5.50;;;;;;;;;;6236602;22;20187;-90
2022/10/30 00:23:35;;;;;;;16.20;5.35;;;;;;;;;;6238064;22;20165;-90
2022/10/30 00:26:41;;;;;;;15.65;6.15;;;;;;;;;;6239144;22;20251;-91
2022/10/30 00:29:46;;;;;;;19.60;6.25;;;;;;;;;;6237756;22;20219;-90
2022/10/30 00:32:51;;;;;;;22.05;7.68;;;;;;;;;;6239839;22;20171;-89
2022/10/30 00:35:56;;;;;;;24.83;8.60;;;;;;;;;;6238715;22;20197;-89
2022/10/30 00:39:02;;;;;;;25.20;7.20;;;;;;;;;;6239323;22;20199;-90
2022/10/30 00:42:09;;;;;;;19.80;7.00;;;;;;;;;;6238913;22;20183;-90
2022/10/30 00:45:16;;;;;;;21.63;7.10;;;;;;;;;;6237734;22;20627;-89
2022/10/30 00:48:24;;;;;;;19.60;6.05;;;;;;;;;;6237869;22;20157;-92
2022/10/30 00:51:34;;;;;;;20.05;5.95;;;;;;;;;;6238936;22;20191;-92
2022/10/30 00:54:40;;;;;;;18.08;5.32;;;;;;;;;;6237208;22;20165;-90
2022/10/30 00:57:46;;;;;;;16.40;5.32;;;;;;;;;;6238063;22;20199;-93
2022/10/30 01:00:54;;;;;;;18.25;5.78;;;;;;;;;;6238106;22;20168;-89
2022/10/30 01:04:01;;;;;;;20.98;5.93;;;;;;;;;;6240574;22;20195;-91
2022/10/30 01:07:09;;;;;;;19.48;6.18;;;;;;;;;;6237059;22;20164;-90
2022/10/30 01:10:18;;;;;;;16.08;5.40;;;;;;;;;;6235680;22;20225;-91
2022/10/30 01:13:23;;;;;;;19.60;5.20;;;;;;;;;;6239042;22;20172;-92
2022/10/30 01:16:39;;;;;;;17.48;5.88;;;;;;;;;;6234862;22;20204;-91
2022/10/30 01:19:53;;;;;;;14.80;5.50;;;;;;;;;;6237262;22;20185;-89
2022/10/30 01:23:06;;;;;;;19.33;6.10;;;;;;;;;;6235845;22;20168;-91
2022/10/30 01:26:17;;;;;;;15.60;5.50;;;;;;;;;;6237026;22;20211;-89
2022/10/30 01:29:32;;;;;;;16.98;6.28;;;;;;;;;;6237187;22;20169;-91
2022/10/30 01:32:42;;;;;;;20.30;6.32;;;;;;;;;;6237153;22;20157;-90
2022/10/30 01:35:49;;;;;;;16.85;5.60;;;;;;;;;;6237719;22;20204;-92
2022/10/30 01:38:56;;;;;;;15.32;5.60;;;;;;;;;;6237200;22;20211;-91
2022/10/30 01:42:09;;;;;;;22.85;5.45;;;;;;;;;;6237120;22;20168;-92
2022/10/30 01:45:16;;;;;;;14.82;5.38;;;;;;;;;;6235821;22;20173;-90
2022/10/30 01:48:27;;;;;;;18.10;5.97;;;;;;;;;;6237084;22;20164;-90
2022/10/30 01:51:50;;;;;;;18.77;6.18;;;;;;;;;;6235520;22;20173;-90
2022/10/30 01:54:59;;;;;;;15.73;5.30;;;;;;;;;;6235811;22;20165;-91
2022/10/30 01:58:13;;;;;;;15.90;5.28;;;;;;;;;;6235830;22;20168;-93
2022/10/30 02:01:18;;;;;;;17.50;5.47;;;;;;;;;;6236378;22;20160;-93
2022/10/30 02:04:26;;;;;;;15.93;5.55;;;;;;;;;;6236717;22;20219;-89
2022/10/30 02:07:31;;;;;;;18.25;6.05;;;;;;;;;;6236844;22;20165;-91
2022/10/30 02:10:37;;;;;;;19.20;6.47;;;;;;;;;;6235585;22;20609;-91
2022/10/30 02:13:44;;;;;;;22.95;6.20;;;;;;;;;;6233573;22;20152;-89
2022/10/30 02:16:51;;;;;;;21.00;5.65;;;;;;;;;;6235209;22;20192;-91
2022/10/30 02:19:58;;;;;;;12.52;5.30;;;;;;;;;;6235527;22;20191;-90
2022/10/30 02:23:05;;;;;;;13.25;5.60;;;;;;;;;;6235549;22;20176;-90
2022/10/30 02:26:12;;;;;;;15.38;7.10;;;;;;;;;;6236219;22;20623;-90
2022/10/30 02:29:19;;;;;;;18.60;5.78;;;;;;;;;;6236171;22;20152;-91
2022/10/30 02:32:24;;;;;;;21.02;5.40;;;;;;;;;;6236939;22;20172;-91
2022/10/30 02:35:30;;;;;;;27.27;7.03;;;;;;;;;;6237431;22;20196;-90
2022/10/30 02:38:37;;;;;;;21.15;6.43;;;;;;;;;;6234490;22;20177;-89
2022/10/30 02:41:42;;;;;;;18.42;6.10;;;;;;;;;;6236059;22;20161;-91
2022/10/30 02:44:49;;;;;;;15.88;6.25;;;;;;;;;;6235440;22;20183;-91
2022/10/30 02:47:54;;;;;;;16.15;5.07;;;;;;;;;;6235249;22;20269;-91
2022/10/30 02:51:00;;;;;;;20.52;6.00;;;;;;;;;;6238129;22;20172;-88
2022/10/30 02:54:08;;;;;;;21.25;5.40;;;;;;;;;;6236148;22;20163;-90
2022/10/30 02:57:13;;;;;;;24.30;5.60;;;;;;;;;;6236997;22;20184;-92
2022/10/30 03:00:19;;;;;;;23.77;5.53;;;;;;;;;;6237061;22;20165;-89
2022/10/30 03:03:24;;;;;;;15.52;4.95;;;;;;;;;;6235176;22;20164;-90
2022/10/30 03:06:29;;;;;;;13.43;5.00;;;;;;;;;;6235539;22;20279;-90
2022/10/30 03:09:37;;;;;;;14.35;5.22;;;;;;;;;;6236881;22;20700;-90
2022/10/30 03:12:42;;;;;;;21.73;5.28;;;;;;;;;;6236666;22;20164;-91
2022/10/30 03:15:47;;;;;;;18.15;5.65;;;;;;;;;;6237295;22;20524;-92
2022/10/30 03:18:53;;;;;;;15.20;5.53;;;;;;;;;;6234992;22;20702;-90
2022/10/30 03:21:58;;;;;;;18.40;4.82;;;;;;;;;;6235568;22;20172;-92
2022/10/30 03:25:09;;;;;;;12.27;4.80;;;;;;;;;;6236640;22;20199;-92
2022/10/30 03:28:14;;;;;;;14.23;4.97;;;;;;;;;;6236265;22;20172;-92
2022/10/30 03:31:20;;;;;;;21.35;5.90;;;;;;;;;;6237755;22;20205;-90
2022/10/30 03:34:34;;;;;;;13.32;4.95;;;;;;;;;;6237349;22;20168;-91
2022/10/30 03:37:43;;;;;;;13.88;5.20;;;;;;;;;;6237451;22;20265;-92
2022/10/30 03:40:49;;;;;;;15.77;5.72;;;;;;;;;;6237758;22;20168;-94
2022/10/30 03:43:54;;;;;;;25.42;5.40;;;;;;;;;;6235857;22;20638;-91
2022/10/30 03:47:00;;;;;;;14.73;5.93;;;;;;;;;;6236862;22;20168;-91
2022/10/30 03:50:09;;;;;;;14.20;5.45;;;;;;;;;;6234771;22;20244;-90
2022/10/30 03:53:14;;;;;;;20.85;6.60;;;;;;;;;;6234822;22;20239;-89
2022/10/30 03:56:21;;;;;;;17.48;6.45;;;;;;;;;;6238743;22;20192;-90
2022/10/30 03:59:30;;;;;;;23.00;7.10;;;;;;;;;;6237604;22;20168;-90
2022/10/30 04:02:55;;;;;;;15.82;5.90;;;;;;;;;;6237598;22;20168;-90
2022/10/30 04:06:03;;;;;;;20.98;5.35;;;;;;;;;;6236559;22;20191;-90
2022/10/30 04:09:08;;;;;;;11.95;5.47;;;;;;;;;;6237806;22;20176;-91
2022/10/30 04:12:20;;;;;;;15.48;5.55;;;;;;;;;;6236546;22;20283;-91
2022/10/30 04:15:25;;;;;;;19.17;5.68;;;;;;;;;;6237050;22;20246;-91
2022/10/30 04:18:30;;;;;;;22.08;6.40;;;;;;;;;;6237132;22;20201;-91
2022/10/30 04:21:37;;;;;;;13.05;5.03;;;;;;;;;;6237223;22;20210;-93
2022/10/30 04:24:43;;;;;;;18.60;5.78;;;;;;;;;;6237547;22;20502;-90
2022/10/30 04:27:51;;;;;;;17.13;5.30;;;;;;;;;;6236775;22;20291;-92
2022/10/30 04:30:57;;;;;;;15.90;5.70;;;;;;;;;;6237119;22;20157;-91
2022/10/30 04:34:04;;;;;;;18.85;5.60;;;;;;;;;;6237603;22;20211;-91
2022/10/30 04:37:09;;;;;;;18.27;5.15;;;;;;;;;;6236734;22;20242;-91
2022/10/30 04:40:14;;;;;;;13.43;5.70;;;;;;;;;;6238320;22;20191;-91
2022/10/30 04:43:31;;;;;;;14.52;5.07;;;;;;;;;;6236032;22;20235;-91
2022/10/30 04:46:36;;;;;;;18.05;5.85;;;;;;;;;;6236042;22;20156;-90
2022/10/30 04:49:46;;;;;;;13.60;5.70;;;;;;;;;;6235322;22;20181;-91
2022/10/30 04:52:59;;;;;;;26.83;6.05;;;;;;;;;;6238267;22;20169;-92
2022/10/30 04:56:03;;;;;;;17.27;5.63;;;;;;;;;;6237728;22;20184;-92
2022/10/30 04:59:11;;;;;;;17.00;5.28;;;;;;;;;;6236542;22;20223;-91
2022/10/30 05:02:28;;;;;;;19.77;5.05;;;;;;;;;;6237735;22;20148;-91
2022/10/30 05:05:33;;;;;;;15.48;6.00;;;;;;;;;;6233957;22;20177;-91
2022/10/30 05:08:38;;;;;;;15.95;5.35;;;;;;;;;;6235306;22;20196;-92
2022/10/30 05:11:54;;;;;;;12.88;5.75;;;;;;;;;;6236148;22;20169;-90
2022/10/30 05:15:00;;;;;;;13.93;5.43;;;;;;;;;;6235975;22;20172;-89
2022/10/30 05:18:10;;;;;;;16.63;4.78;;;;;;;;;;6235304;22;20295;-91
2022/10/30 05:21:15;;;;;;;16.50;4.75;;;;;;;;;;6235409;22;20191;-92
2022/10/30 05:24:21;;;;;;;13.00;4.55;;;;;;;;;;6235160;22;20164;-91
2022/10/30 05:27:26;;;;;;;17.88;4.65;;;;;;;;;;6235767;22;20164;-90
2022/10/30 05:30:33;;;;;;;11.35;4.30;;;;;;;;;;6236654;22;20168;-90
2022/10/30 05:33:39;;;;;;;19.83;4.93;;;;;;;;;;6236867;22;20169;-91
2022/10/30 05:36:44;;;;;;;15.68;4.97;;;;;;;;;;6233903;22;20365;-90
2022/10/30 05:39:51;;;;;;;17.10;5.13;;;;;;;;;;6235914;22;20183;-89
2022/10/30 05:43:03;;;;;;;19.83;5.75;;;;;;;;;;6237500;22;20169;-89
2022/10/30 05:46:11;;;;;;;18.52;6.10;;;;;;;;;;6236334;22;20165;-91
2022/10/30 05:49:22;;;;;;;16.30;5.30;;;;;;;;;;6237502;22;20170;-90
2022/10/30 05:52:28;;;;;;;16.48;5.07;;;;;;;;;;6236658;22;20189;-89
2022/10/30 05:55:35;;;;;;;15.27;6.10;;;;;;;;;;6236038;22;20808;-91
2022/10/30 05:58:58;;;;;;;11.13;4.85;;;;;;;;;;6236306;22;20173;-89
2022/10/30 06:02:05;;;;;;;10.77;4.65;;;;;;;;;;6237994;22;20181;-89
2022/10/30 06:05:10;;;;;;;8.82;4.78;;;;;;;;;;6237789;22;20669;-90
2022/10/30 06:08:16;;;;;;;16.75;5.20;;;;;;;;;;6164904;23;20168;-91
2022/10/30 06:11:22;;;;;;;13.32;4.78;;;;;;;;;;6235616;22;20169;-91
2022/10/30 06:14:32;;;;;;;19.38;5.75;;;;;;;;;;6235740;22;20163;-92
2022/10/30 06:17:39;;;;;;;17.83;5.00;;;;;;;;;;6236342;22;20196;-90
2022/10/30 06:21:00;;;;;;;20.67;4.80;;;;;;;;;;6240703;22;20305;-91
2022/10/30 06:24:41;;;;;;;16.92;5.60;;;;;;;;;;6167884;22;20173;-93
2022/10/30 06:27:57;;;;;;;19.10;6.00;;;;;;;;;;6165155;23;20184;-92
2022/10/30 06:31:06;;;;;;;19.90;5.50;;;;;;;;;;6237658;22;20239;-92
2022/10/30 06:34:14;;;;;;;21.15;5.82;;;;;;;;;;6235233;22;20248;-89
2022/10/30 06:37:20;;;;;;;16.05;5.57;;;;;;;;;;6235100;22;20191;-89
2022/10/30 06:40:25;;;;;;;16.65;5.78;;;;;;;;;;6236242;22;20170;-90
2022/10/30 06:43:34;;;;;;;16.52;6.28;;;;;;;;;;6163519;23;20177;-90
2022/10/30 06:46:45;;;;;;;15.55;5.57;;;;;;;;;;6237429;22;20168;-90
2022/10/30 06:49:52;;;;;;;13.30;5.88;;;;;;;;;;6236683;22;20172;-88
2022/10/30 06:52:58;;;;;;;17.40;6.40;;;;;;;;;;6238060;22;20615;-92
2022/10/30 06:56:05;;;;;;;16.50;5.68;;;;;;;;;;6236977;22;20510;-90
2022/10/30 06:59:33;;;;;;;19.50;5.38;;;;;;;;;;6166580;23;20156;-89
2022/10/30 07:02:57;;;;;;;16.15;4.85;;;;;;;;;;6236706;22;20172;-91
2022/10/30 07:06:03;;;;;;;16.90;6.70;;;;;;;;;;6238576;22;20173;-91
2022/10/30 07:09:09;;;;;;;19.73;6.68;;;;;;;;;;6239456;22;20168;-91
2022/10/30 07:12:14;;;;;;;14.25;5.55;;;;;;;;;;6236376;22;20539;-91
2022/10/30 07:15:33;;;;;;;14.98;4.88;;;;;;;;;;6238727;22;20219;-89
2022/10/30 07:18:44;;;;;;;11.35;5.70;;;;;;;;;;6236565;22;20192;-91
2022/10/30 07:21:51;;;;;;;16.08;5.88;;;;;;;;;;6237764;22;20238;-92
2022/10/30 07:24:57;;;;;;;15.65;5.38;;;;;;;;;;6238119;22;20167;-91
2022/10/30 07:28:19;;;;;;;10.13;4.80;;;;;;;;;;6236694;22;20157;-90
2022/10/30 07:31:42;;;;;;;22.20;5.72;;;;;;;;;;6238985;22;20239;-90
2022/10/30 07:35:09;;;;;;;12.45;5.45;;;;;;;;;;6238769;22;20530;-90
2022/10/30 07:38:35;;;;;;;18.05;5.10;;;;;;;;;;6167671;22;20204;-92
2022/10/30 07:41:54;;;;;;;10.20;4.70;;;;;;;;;;6237268;22;20213;-91
2022/10/30 07:45:34;;;;;;;12.77;4.55;;;;;;;;;;6180906;22;20187;-92
2022/10/30 07:48:58;;;;;;;9.75;4.55;;;;;;;;;;6166247;23;20173;-89
2022/10/30 07:52:18;;;;;;;9.75;4.72;;;;;;;;;;6238377;22;20157;-91
2022/10/30 07:55:28;;;;;;;17.08;5.47;;;;;;;;;;6239985;22;20193;-91
2022/10/30 07:58:56;;;;;;;17.38;5.65;;;;;;;;;;6175700;22;20212;-91
2022/10/30 08:02:14;;;;;;;19.60;5.32;;;;;;;;;;6239234;22;20167;-92
2022/10/30 08:05:37;;;;;;;17.55;5.43;;;;;;;;;;6239773;22;20169;-89
2022/10/30 08:08:45;;;;;;;12.77;5.50;;;;;;;;;;6238401;22;20171;-91
2022/10/30 08:12:08;;;;;;;15.20;5.82;;;;;;;;;;6238185;22;20218;-91
2022/10/30 08:15:13;;;;;;;12.00;5.40;;;;;;;;;;6239011;22;20220;-90
2022/10/30 08:18:22;;;;;;;11.93;5.43;;;;;;;;;;6239775;22;20229;-89
2022/10/30 08:21:28;;;;;;;12.82;4.72;;;;;;;;;;6240382;22;20203;-91
2022/10/30 08:24:39;;;;;;;11.52;5.22;;;;;;;;;;6240728;22;20488;-91
2022/10/30 08:27:53;;;;;;;16.73;5.38;;;;;;;;;;6239429;22;20275;-89
2022/10/30 08:31:01;;;;;;;12.48;5.40;;;;;;;;;;6238177;22;20220;-91
2022/10/30 08:34:34;;;;;;;21.65;4.95;;;;;;;;;;6167178;23;20187;-91
2022/10/30 08:37:45;;;;;;;7.50;4.32;;;;;;;;;;6238421;22;20211;-92
2022/10/30 08:40:50;;;;;;;12.32;4.90;;;;;;;;;;6242391;22;20172;-91
2022/10/30 08:44:01;;;;;;;15.15;4.85;;;;;;;;;;6239064;22;20165;-91
2022/10/30 08:47:17;;;;;;;11.63;4.50;;;;;;;;;;6242904;22;20243;-90
2022/10/30 08:50:27;;;;;;;18.02;5.32;;;;;;;;;;6242180;22;20176;-89
2022/10/30 08:53:33;;;;;;;11.05;5.10;;;;;;;;;;6239560;22;20175;-92
2022/10/30 08:56:42;;;;;;;13.25;4.63;;;;;;;;;;6240138;22;20156;-90
2022/10/30 08:59:52;;;;;;;12.68;5.28;;;;;;;;;;6239162;22;20255;-91
2022/10/30 09:03:20;;;;;;;17.80;5.53;;;;;;;;;;6166193;22;20223;-90
2022/10/30 09:07:01;;;;;;;18.02;4.47;;;;;;;;;;6239511;22;20180;-89
2022/10/30 09:10:42;;;;;;;14.00;4.78;;;;;;;;;;6198317;22;20207;-93
2022/10/30 09:13:48;;;;;;;12.85;4.00;;;;;;;;;;6240444;22;20242;-92
2022/10/30 09:16:56;;;;;;;21.48;4.93;;;;;;;;;;6239414;22;20211;-89
2022/10/30 09:20:02;;;;;;;13.18;4.50;;;;;;;;;;6240014;22;20746;-90
2022/10/30 09:23:13;;;;;;;9.13;3.85;;;;;;;;;;6246211;22;20223;-90
2022/10/30 09:26:18;;;;;;;13.57;4.10;;;;;;;;;;6240686;22;20213;-91
2022/10/30 09:29:42;;;;;;;14.00;4.05;;;;;;;;;;6168013;22;20196;-92
2022/10/30 09:33:01;;;;;;;12.05;4.03;;;;;;;;;;6240280;22;20225;-91
2022/10/30 09:39:46;;;;;;;10.23;4.43;;;;;;;;;;6240198;22;20169;-91
2022/10/30 09:42:53;;;;;;;11.48;4.00;;;;;;;;;;6238555;22;20227;-90
2022/10/30 09:46:22;;;;;;;8.90;3.75;;;;;;;;;;6241148;22;20165;-88
2022/10/30 09:49:34;;;;;;;8.07;3.60;;;;;;;;;;6241192;22;20168;-88
2022/10/30 09:52:42;;;;;;;9.63;3.67;;;;;;;;;;6237951;22;20240;-92
2022/10/30 09:55:52;;;;;;;13.55;4.20;;;;;;;;;;6240358;22;20211;-90
2022/10/30 09:59:07;;;;;;;11.70;3.80;;;;;;;;;;6237483;22;20266;-90
2022/10/30 10:02:22;;;;;;;24.30;4.38;;;;;;;;;;6239081;22;20554;-88
2022/10/30 10:05:30;;;;;;;13.90;4.00;;;;;;;;;;6240925;22;20225;-91
2022/10/30 10:08:56;;;;;;;13.30;4.32;;;;;;;;;;6167261;22;20197;-90
2022/10/30 10:12:24;;;;;;;8.88;3.78;;;;;;;;;;6167254;23;20169;-91
2022/10/30 10:15:34;;;;;;;13.95;4.22;;;;;;;;;;6238259;22;20212;-91
2022/10/30 10:18:43;;;;;;;16.13;4.35;;;;;;;;;;6237831;22;20239;-92
2022/10/30 10:21:57;;;;;;;14.57;4.15;;;;;;;;;;6238418;22;20188;-90
2022/10/30 10:25:03;;;;;;;15.50;4.22;;;;;;;;;;6239504;22;20184;-90
2022/10/30 10:28:16;;;;;;;12.77;3.95;;;;;;;;;;6236057;22;20164;-91
2022/10/30 10:31:34;;;;;;;19.63;5.03;;;;;;;;;;6239452;22;20160;-89
2022/10/30 10:34:48;;;;;;;17.92;4.20;;;;;;;;;;6243344;22;20197;-92
2022/10/30 10:37:58;;;;;;;15.63;3.85;;;;;;;;;;6240774;22;20197;-91
2022/10/30 10:41:11;;;;;;;12.85;3.92;;;;;;;;;;6220084;22;20188;-91
2022/10/30 10:44:41;;;;;;;15.85;4.40;;;;;;;;;;6238052;22;20172;-91
2022/10/30 10:48:07;;;;;;;15.95;4.35;;;;;;;;;;6238117;22;20169;-91
2022/10/30 10:51:16;;;;;;;16.23;4.60;;;;;;;;;;6238775;22;20207;-90
2022/10/30 10:54:25;;;;;;;14.68;4.05;;;;;;;;;;6237543;22;20164;-90
2022/10/30 11:00:53;;;;;;;10.55;3.67;;;;;;;;;;6239759;22;20188;-91
2022/10/30 11:04:01;;;;;;;16.70;5.15;;;;;;;;;;6238139;22;20160;-91
2022/10/30 11:07:16;;;;;;;20.52;5.80;;;;;;;;;;6238164;22;20183;-90
2022/10/30 11:10:25;;;;;;;18.50;4.95;;;;;;;;;;6239317;22;20174;-92
2022/10/30 11:13:31;;;;;;;14.93;3.85;;;;;;;;;;6240809;22;20207;-93
2022/10/30 11:16:49;;;;;;;12.88;3.95;;;;;;;;;;6240037;22;20650;-91
2022/10/30 11:19:59;;;;;;;14.73;4.00;;;;;;;;;;6239435;22;20192;-92
2022/10/30 11:23:05;;;;;;;13.98;3.95;;;;;;;;;;6240884;22;20171;-91
2022/10/30 11:26:27;;;;;;;9.77;3.35;;;;;;;;;;6242003;22;20168;-91
2022/10/30 11:29:32;;;;;;;13.93;4.40;;;;;;;;;;6241358;22;20525;-90
2022/10/30 11:32:37;;;;;;;14.90;4.40;;;;;;;;;;6239338;22;20172;-91
2022/10/30 11:35:43;;;;;;;10.90;3.88;;;;;;;;;;6239356;22;20237;-92
2022/10/30 11:38:49;;;;;;;18.85;4.55;;;;;;;;;;6239510;22;20200;-92
2022/10/30 11:42:19;;;;;;;12.15;4.20;;;;;;;;;;6238594;22;20251;-92
2022/10/30 11:45:25;;;;;;;19.25;4.45;;;;;;;;;;6241283;22;20168;-93
2022/10/30 20:32:57;;;;;;;28.67;9.40;;;;;;;;;;6183274;22;20208;-91
2022/10/30 20:36:02;;;;;;;29.63;9.82;;;;;;;;;;6354497;22;20172;-91
2022/10/30 20:39:10;;;;;;;37.22;9.75;;;;;;;;;;6354519;22;20195;-91
2022/10/30 20:42:18;;;;;;;27.00;11.07;;;;;;;;;;6354474;22;20183;-92
2022/10/30 20:45:30;;;;;;;30.90;10.32;;;;;;;;;;6354444;22;20152;-90
2022/10/30 20:48:40;;;;;;;39.55;11.68;;;;;;;;;;6355579;22;20258;-91
2022/10/30 20:51:46;;;;;;;40.55;12.27;;;;;;;;;;6353426;22;20164;-92
2022/10/30 20:54:54;;;;;;;37.13;12.13;;;;;;;;;;6352684;22;20173;-91
2022/10/30 20:57:59;;;;;;;46.95;12.13;;;;;;;;;;6352180;22;20543;-92
2022/10/30 21:01:05;;;;;;;48.80;13.18;;;;;;;;;;6354219;22;20168;-88
2022/10/30 21:04:12;;;;;;;45.80;12.93;;;;;;;;;;6356046;22;20171;-91
2022/10/30 21:07:17;;;;;;;40.42;12.57;;;;;;;;;;6354869;22;20165;-91
2022/10/30 21:10:23;;;;;;;47.15;12.75;;;;;;;;;;6354782;22;20196;-92
2022/10/30 21:13:29;;;;;;;78.18;15.50;;;;;;;;;;6353410;22;20179;-90
2022/10/30 21:16:34;;;;;;;85.82;14.95;;;;;;;;;;6355033;22;20160;-90
2022/10/30 21:19:42;;;;;;;119.28;19.85;;;;;;;;;;6354359;22;20188;-91
2022/10/30 21:22:48;;;;;;;69.03;15.65;;;;;;;;;;6354048;22;20235;-90
2022/10/30 21:25:59;;;;;;;111.70;20.67;;;;;;;;;;6337401;22;20160;-92
2022/10/30 21:29:05;;;;;;;89.28;20.42;;;;;;;;;;6354699;22;20237;-89
2022/10/30 21:32:13;;;;;;;122.53;15.70;;;;;;;;;;6354686;22;20556;-93
2022/10/30 21:35:22;;;;;;;48.90;14.98;;;;;;;;;;6355661;22;20264;-90
2022/10/30 21:38:27;;;;;;;62.20;13.00;;;;;;;;;;6355995;22;20165;-91
2022/10/30 21:41:33;;;;;;;52.30;13.13;;;;;;;;;;6357784;22;20214;-89
2022/10/30 21:48:57;;;;;;;46.45;10.80;;;;;;;;;;6352343;22;20190;-91
2022/10/30 21:52:05;;;;;;;64.63;10.98;;;;;;;;;;6351817;22;20215;-92
2022/10/30 21:55:10;;;;;;;43.15;10.85;;;;;;;;;;6353244;22;20164;-90
2022/10/30 21:58:15;;;;;;;38.40;11.00;;;;;;;;;;6355790;22;20171;-91
2022/10/30 22:01:26;;;;;;;50.67;11.85;;;;;;;;;;6353759;22;20168;-92
2022/10/30 22:04:31;;;;;;;50.60;10.73;;;;;;;;;;6352564;22;20195;-91
2022/10/30 22:07:38;;;;;;;52.20;10.63;;;;;;;;;;6352960;22;20228;-89
2022/10/30 22:10:44;;;;;;;42.03;11.93;;;;;;;;;;6352514;22;20204;-90
2022/10/30 22:13:55;;;;;;;73.95;11.80;;;;;;;;;;6352946;22;20718;-91
2022/10/30 22:16:59;;;;;;;34.70;9.98;;;;;;;;;;6352539;22;20272;-91
2022/10/30 22:20:05;;;;;;;43.95;9.85;;;;;;;;;;6352562;22;20188;-91
2022/10/30 22:23:12;;;;;;;66.63;12.35;;;;;;;;;;6355152;22;20148;-91
2022/10/30 22:26:19;;;;;;;53.85;10.80;;;;;;;;;;6354112;22;20147;-91
2022/10/30 22:29:24;;;;;;;33.42;10.18;;;;;;;;;;6353657;22;20623;-92
2022/10/30 22:32:29;;;;;;;46.80;9.73;;;;;;;;;;6353609;22;20691;-92
2022/10/30 22:35:34;;;;;;;65.38;11.25;;;;;;;;;;6353610;22;20164;-90
2022/10/30 22:38:41;;;;;;;69.18;10.27;;;;;;;;;;6351974;22;20165;-89
2022/10/30 22:41:47;;;;;;;51.85;9.40;;;;;;;;;;6351292;22;20164;-89
2022/10/30 22:44:52;;;;;;;44.38;9.05;;;;;;;;;;6355249;22;20183;-91
2022/10/30 22:47:58;;;;;;;57.95;8.68;;;;;;;;;;6351466;22;20168;-91
2022/10/30 22:51:04;;;;;;;63.92;10.43;;;;;;;;;;6353110;22;20675;-91
2022/10/30 22:54:13;;;;;;;55.40;8.52;;;;;;;;;;6351434;22;20176;-90
2022/10/30 22:57:18;;;;;;;34.95;8.63;;;;;;;;;;6352404;22;20145;-91
2022/10/30 23:00:26;;;;;;;34.60;8.65;;;;;;;;;;6352065;22;20191;-91
2022/10/30 23:03:33;;;;;;;26.58;8.02;;;;;;;;;;6352160;22;20161;-91
2022/10/30 23:06:38;;;;;;;25.40;8.18;;;;;;;;;;6353059;22;20471;-92
2022/10/30 23:09:45;;;;;;;28.33;9.15;;;;;;;;;;6351110;22;20228;-89
2022/10/30 23:12:51;;;;;;;19.85;7.40;;;;;;;;;;6352369;22;20152;-88
2022/10/30 23:16:00;;;;;;;27.95;7.82;;;;;;;;;;6354329;22;20217;-90
2022/10/30 23:19:05;;;;;;;29.73;7.20;;;;;;;;;;6353341;22;20192;-91
2022/10/30 23:22:10;;;;;;;19.15;7.07;;;;;;;;;;6352311;22;20254;-91
2022/10/30 23:25:18;;;;;;;21.23;8.60;;;;;;;;;;6352285;22;20202;-91
2022/10/30 23:28:24;;;;;;;20.52;7.43;;;;;;;;;;6351608;22;20184;-92
2022/10/30 23:31:31;;;;;;;20.90;7.20;;;;;;;;;;6353899;22;20168;-90
2022/10/30 23:34:36;;;;;;;19.40;7.28;;;;;;;;;;6352964;22;20179;-92
2022/10/30 23:37:41;;;;;;;25.58;7.53;;;;;;;;;;6353586;22;20164;-90
2022/10/30 23:40:48;;;;;;;25.88;6.97;;;;;;;;;;6353949;22;20262;-91
2022/10/30 23:43:55;;;;;;;23.77;7.82;;;;;;;;;;6352548;22;20168;-89
2022/10/30 23:47:00;;;;;;;36.97;7.57;;;;;;;;;;6353012;22;20148;-89
2022/10/30 23:50:05;;;;;;;43.22;15.48;;;;;;;;;;6352636;22;20173;-90
2022/10/30 23:53:10;;;;;;;28.30;8.75;;;;;;;;;;6351611;22;20537;-89
2022/10/30 23:56:17;;;;;;;36.97;12.10;;;;;;;;;;6352374;22;20165;-90
2022/10/30 23:59:22;;;;;;;48.33;10.45;;;;;;;;;;6353990;22;20239;-91
